Time;durP1;ratioP1;P1;durP2;ratioP2;P2;SDS_P1;SDS_P2;PMS_P1;PMS_P2;Temp;Humidity;BMP_temperature;BMP_pressure;BME280_temperature;BME280_humidity;BME280_pressure;Samples;Min_cycle;Max_cycle;Signal;HPM_P1;HPM_P2
2022/12/17 13:06:43;;;;;;;20.58;9.82;;;;;;;1.22;98.03;101813.84;5144789;28;20093;-75
2022/12/17 13:09:13;;;;;;;20.65;10.57;;;;;;;1.26;97.15;101816.50;5156197;28;20388;-74
2022/12/17 13:11:52;;;;;;;22.58;10.35;;;;;;;1.18;97.14;101814.59;5131061;28;20034;-74
2022/12/17 13:14:27;;;;;;;18.90;10.20;;;;;;;1.19;97.44;101813.75;5129410;28;20176;-75
2022/12/17 13:17:29;;;;;;;22.65;11.55;;;;;;;1.06;98.63;101815.19;5150464;28;20026;-76
2022/12/17 13:20:20;;;;;;;20.85;10.68;;;;;;;1.06;97.68;101814.34;5153071;28;20049;-74
2022/12/17 13:23:02;;;;;;;24.40;11.05;;;;;;;1.06;98.24;101812.63;5153193;28;20649;-74
2022/12/17 13:25:33;;;;;;;22.67;10.85;;;;;;;1.03;98.37;101812.56;5146635;28;20177;-75
2022/12/17 13:28:04;;;;;;;24.67;11.07;;;;;;;1.01;97.70;101811.66;5153343;28;20034;-76
2022/12/17 13:30:36;;;;;;;22.00;10.43;;;;;;;0.97;97.94;101817.56;5150708;28;20023;-75
2022/12/17 13:33:38;;;;;;;20.52;10.70;;;;;;;1.16;98.45;101817.16;5151619;28;20697;-74
2022/12/17 13:36:46;;;;;;;23.45;11.25;;;;;;;0.99;97.50;101820.16;5150482;28;20381;-75
2022/12/17 13:39:39;;;;;;;25.23;12.05;;;;;;;1.05;96.68;101816.03;5126835;28;20056;-74
2022/12/17 13:42:35;;;;;;;22.20;11.13;;;;;;;0.97;97.15;101822.72;5153053;28;20038;-74
2022/12/17 13:45:06;;;;;;;23.83;11.18;;;;;;;0.87;97.69;101820.75;5131497;28;20210;-74
2022/12/17 13:47:37;;;;;;;25.73;12.02;;;;;;;0.89;98.79;101823.38;5155540;28;20034;-76
2022/12/17 13:50:33;;;;;;;19.42;11.43;;;;;;;0.86;98.65;101826.75;5142630;28;20126;-75
2022/12/17 13:53:11;;;;;;;25.25;12.15;;;;;;;0.88;98.56;101835.38;5156419;28;20550;-74
2022/12/17 13:55:49;;;;;;;24.40;11.30;;;;;;;0.87;96.57;101836.19;5140500;28;20026;-76
2022/12/17 13:58:22;;;;;;;28.13;11.63;;;;;;;0.86;96.59;101831.88;5159687;28;20084;-76
2022/12/17 14:01:13;;;;;;;19.10;11.45;;;;;;;0.94;97.25;101835.53;5152679;28;20026;-77
2022/12/17 14:03:54;;;;;;;21.67;11.60;;;;;;;0.87;97.10;101837.91;5154542;28;20062;-77
2022/12/17 14:06:33;;;;;;;25.20;12.75;;;;;;;0.87;97.61;101840.50;5147105;28;20054;-76
2022/12/17 14:09:04;;;;;;;24.58;11.68;;;;;;;0.84;96.55;101831.00;5154401;28;20046;-76
2022/12/17 14:14:33;;;;;;;27.75;13.60;;;;;;;0.75;98.09;101841.03;5140456;28;20041;-76
2022/12/17 14:17:03;;;;;;;27.38;14.27;;;;;;;0.76;98.92;101837.63;5153626;28;20029;-76
2022/12/17 14:19:35;;;;;;;25.65;13.63;;;;;;;0.71;99.63;101841.81;5144253;28;20030;-77
2022/12/17 14:22:05;;;;;;;30.45;14.38;;;;;;;0.64;100.00;101841.63;5155645;28;20062;-76
2022/12/17 14:24:37;;;;;;;23.58;13.75;;;;;;;0.52;100.00;101849.91;5158590;28;20112;-76
2022/12/17 14:27:22;;;;;;;27.05;13.68;;;;;;;0.35;100.00;101855.47;5142250;28;20507;-75
2022/12/17 14:29:53;;;;;;;24.67;13.98;;;;;;;0.24;100.00;101859.47;5152576;28;20084;-76
2022/12/17 14:32:35;;;;;;;26.17;13.50;;;;;;;0.19;100.00;101867.03;5147799;28;20121;-75
2022/12/17 14:35:21;;;;;;;22.20;12.25;;;;;;;0.10;100.00;101860.78;5151273;28;20030;-76
2022/12/17 14:37:52;;;;;;;24.95;12.10;;;;;;;0.01;100.00;101860.56;5156347;28;20101;-76
2022/12/17 14:40:24;;;;;;;22.98;11.95;;;;;;;-0.07;100.00;101866.31;5139907;28;20751;-77
2022/12/17 14:42:59;;;;;;;29.40;12.18;;;;;;;-0.14;100.00;101864.38;5151115;28;20037;-76
2022/12/17 14:45:30;;;;;;;19.42;10.95;;;;;;;-0.20;100.00;101870.22;5152012;28;20034;-76
2022/12/17 14:48:05;;;;;;;19.80;10.88;;;;;;;-0.24;100.00;101872.69;5156504;28;20040;-76
2022/12/17 14:50:36;;;;;;;25.92;11.35;;;;;;;-0.33;100.00;101875.84;5137831;28;20043;-76
2022/12/17 14:53:26;;;;;;;22.33;11.77;;;;;;;-0.41;100.00;101877.31;5141276;28;20038;-76
2022/12/17 14:55:58;;;;;;;19.88;11.18;;;;;;;-0.47;100.00;101873.69;5156525;28;20030;-75
2022/12/17 14:58:28;;;;;;;21.17;10.75;;;;;;;-0.52;100.00;101875.25;5159945;28;20085;-77
2022/12/17 15:01:05;;;;;;;25.73;11.55;;;;;;;-0.60;100.00;101879.28;5149452;28;20484;-76
2022/12/17 15:03:39;;;;;;;22.60;11.57;;;;;;;-0.66;100.00;101877.44;5149556;28;20023;-76
2022/12/17 15:06:14;;;;;;;23.10;12.00;;;;;;;-0.74;100.00;101880.59;5132289;28;20037;-74
2022/12/17 15:08:46;;;;;;;27.00;12.13;;;;;;;-0.79;100.00;101892.38;5143735;28;20049;-76
2022/12/17 15:11:22;;;;;;;28.90;13.55;;;;;;;-0.71;100.00;101880.69;5142165;28;20546;-75
2022/12/17 15:13:52;;;;;;;;;;;;;;;-0.63;100.00;101879.19;5140225;28;20043;-74
2022/12/17 15:16:23;;;;;;;26.23;13.03;;;;;;;-0.81;100.00;101884.66;5138911;28;20414;-75
2022/12/17 15:18:53;;;;;;;27.95;12.55;;;;;;;-0.92;100.00;101886.00;5140355;28;20282;-74
2022/12/17 15:21:24;;;;;;;22.35;12.77;;;;;;;-0.98;100.00;101877.25;5142474;28;20022;-75
2022/12/17 15:23:55;;;;;;;26.80;12.95;;;;;;;-0.99;100.00;101896.91;5142863;28;20046;-73
2022/12/17 15:26:25;;;;;;;28.60;13.38;;;;;;;-1.14;100.00;101885.28;5125146;28;20065;-75
2022/12/17 15:28:55;;;;;;;28.08;13.05;;;;;;;-1.21;100.00;101886.78;5143494;28;20035;-76
2022/12/17 15:31:26;;;;;;;24.17;13.23;;;;;;;-1.27;100.00;101906.25;5126088;28;20058;-75
2022/12/17 15:33:57;;;;;;;27.95;14.18;;;;;;;-1.28;100.00;101901.91;5143688;28;20030;-76
2022/12/17 15:36:30;;;;;;;24.58;14.45;;;;;;;-1.40;100.00;101911.78;5117573;28;20027;-75
2022/12/17 15:39:00;;;;;;;28.75;14.48;;;;;;;-1.54;100.00;101913.84;5138001;28;20484;-75
2022/12/17 15:44:20;;;;;;;31.38;15.02;;;;;;;-1.63;100.00;101920.34;5134460;28;20030;-75
2022/12/17 15:46:51;;;;;;;32.90;16.55;;;;;;;-1.70;100.00;101915.84;5136114;28;20343;-76
2022/12/17 15:49:21;;;;;;;29.45;15.10;;;;;;;-1.69;100.00;101921.03;5142363;28;20022;-75
2022/12/17 15:51:51;;;;;;;28.98;14.38;;;;;;;-1.68;100.00;101929.56;5144946;28;20050;-75
2022/12/17 15:54:22;;;;;;;29.15;15.10;;;;;;;-1.64;100.00;101923.72;5150648;28;20460;-75
2022/12/17 15:56:53;;;;;;;25.17;14.10;;;;;;;-1.72;100.00;101923.47;5149377;28;20056;-75
2022/12/17 15:59:24;;;;;;;29.33;15.02;;;;;;;-1.82;100.00;101921.41;5146781;28;20031;-75
2022/12/17 16:01:54;;;;;;;32.30;15.18;;;;;;;-1.82;100.00;101918.84;5144801;28;20804;-74
2022/12/17 16:04:24;;;;;;;32.38;14.77;;;;;;;-1.88;100.00;101924.56;5145800;28;20359;-74
2022/12/17 16:06:54;;;;;;;27.55;15.63;;;;;;;-1.89;100.00;101925.38;5145114;28;20447;-76
2022/12/17 16:09:25;;;;;;;33.13;14.90;;;;;;;-1.98;100.00;101922.50;5149403;28;20605;-75
2022/12/17 16:11:56;;;;;;;26.20;14.50;;;;;;;-2.06;100.00;101923.91;5144202;28;20085;-75
2022/12/17 16:14:26;;;;;;;26.17;14.73;;;;;;;-2.09;100.00;101919.56;5149311;28;20026;-76
2022/12/17 16:16:56;;;;;;;28.77;14.35;;;;;;;-2.07;100.00;101925.59;5133104;28;20014;-76
2022/12/17 16:19:27;;;;;;;30.58;14.95;;;;;;;-2.14;100.00;101922.78;5155463;28;20097;-75
2022/12/17 16:21:57;;;;;;;29.52;15.40;;;;;;;-2.14;100.00;101918.50;5137785;28;20041;-75
2022/12/17 16:24:27;;;;;;;28.80;14.95;;;;;;;-2.20;100.00;101923.41;5154407;28;20100;-75
2022/12/17 16:26:58;;;;;;;31.23;16.15;;;;;;;-2.26;100.00;101922.31;5145585;28;20034;-76
2022/12/17 16:29:28;;;;;;;31.05;14.95;;;;;;;-2.33;100.00;101931.44;5140474;28;20037;-75
2022/12/17 16:31:59;;;;;;;30.52;15.55;;;;;;;-2.21;100.00;101923.34;5149988;28;20034;-75
2022/12/17 16:34:30;;;;;;;30.40;15.77;;;;;;;-2.22;100.00;101927.59;5146423;28;20102;-76
2022/12/17 16:37:00;;;;;;;30.67;15.90;;;;;;;-2.29;100.00;101920.53;5142344;28;20054;-75
2022/12/17 16:39:30;;;;;;;31.85;16.75;;;;;;;-2.36;100.00;101928.78;5145720;28;20042;-76
2022/12/17 16:42:01;;;;;;;30.10;15.80;;;;;;;-2.40;100.00;101932.03;5148250;28;20058;-75
2022/12/17 16:44:31;;;;;;;33.65;17.75;;;;;;;-2.26;100.00;101930.88;5147237;28;20118;-74
2022/12/17 16:47:02;;;;;;;37.15;19.77;;;;;;;-2.23;100.00;101940.34;5147178;28;20039;-76
2022/12/17 16:49:32;;;;;;;37.22;19.38;;;;;;;-2.30;100.00;101939.22;5146412;28;20823;-76
2022/12/17 16:52:02;;;;;;;35.67;18.80;;;;;;;-2.29;100.00;101950.34;5144146;28;20030;-76
2022/12/17 16:54:33;;;;;;;40.90;19.48;;;;;;;-2.31;100.00;101941.75;5147517;28;20243;-76
2022/12/17 16:57:03;;;;;;;39.00;19.40;;;;;;;-2.31;100.00;101937.47;5151187;28;20019;-75
2022/12/17 16:59:33;;;;;;;37.05;19.92;;;;;;;-2.31;100.00;101946.88;5148804;28;20308;-75
2022/12/17 17:02:04;;;;;;;40.28;20.20;;;;;;;-2.40;100.00;101942.28;5147615;28;20098;-76
2022/12/17 17:04:34;;;;;;;40.00;20.45;;;;;;;-2.42;100.00;101949.03;5143088;28;20056;-75
2022/12/17 17:07:05;;;;;;;34.17;18.80;;;;;;;-2.51;100.00;101951.22;5137588;28;20446;-74
2022/12/17 17:09:36;;;;;;;38.63;20.27;;;;;;;-2.49;100.00;101952.16;5144990;28;20042;-74
2022/12/17 17:12:07;;;;;;;42.13;20.65;;;;;;;-2.48;100.00;101947.91;5140927;28;20378;-76
2022/12/17 17:14:39;;;;;;;41.72;20.73;;;;;;;-2.49;100.00;101954.72;5138944;28;20033;-75
2022/12/17 17:17:09;;;;;;;46.13;20.98;;;;;;;-2.71;100.00;101944.47;5134592;28;20019;-76
2022/12/17 17:19:40;;;;;;;40.92;21.67;;;;;;;-2.80;100.00;101959.47;5138936;28;20030;-76
2022/12/17 17:22:10;;;;;;;48.85;24.25;;;;;;;-2.98;100.00;101958.72;5137923;28;20018;-75
2022/12/17 17:24:40;;;;;;;47.90;23.75;;;;;;;-2.76;100.00;101960.44;5138593;28;20057;-75
2022/12/17 17:27:11;;;;;;;42.70;22.63;;;;;;;-2.69;100.00;101963.28;5145694;28;20672;-75
2022/12/17 17:29:41;;;;;;;42.22;23.00;;;;;;;-2.97;100.00;101969.81;5138681;28;20018;-75
2022/12/17 17:32:11;;;;;;;44.22;23.90;;;;;;;-3.07;100.00;101957.47;5146487;28;20030;-76
2022/12/17 17:34:42;;;;;;;52.33;24.40;;;;;;;-3.22;100.00;101964.53;5148852;28;20423;-74
2022/12/17 17:37:12;;;;;;;51.67;26.23;;;;;;;-3.27;100.00;101960.88;5145858;28;20030;-76
2022/12/17 17:39:43;;;;;;;50.60;26.27;;;;;;;-3.16;100.00;101960.50;5154249;28;20027;-76
2022/12/17 17:42:13;;;;;;;53.13;25.88;;;;;;;-3.14;100.00;101961.47;5153612;28;20054;-75
2022/12/17 17:44:43;;;;;;;51.83;26.77;;;;;;;-3.23;100.00;101984.06;5149138;28;20026;-76
2022/12/17 17:47:14;;;;;;;54.83;27.52;;;;;;;-3.31;100.00;101987.13;5151124;28;20050;-75
2022/12/17 17:49:45;;;;;;;50.33;25.60;;;;;;;-3.23;100.00;101990.88;5147562;28;20106;-76
2022/12/17 17:52:16;;;;;;;51.85;25.73;;;;;;;-3.24;100.00;101987.44;5147238;28;20033;-75
2022/12/17 17:54:47;;;;;;;50.10;25.77;;;;;;;-3.35;100.00;101998.88;5155651;28;20125;-75
2022/12/17 17:57:17;;;;;;;48.83;25.50;;;;;;;-3.48;100.00;102004.31;5152138;28;20105;-75
2022/12/17 17:59:47;;;;;;;52.53;25.83;;;;;;;-3.37;100.00;101994.53;5154199;28;20057;-75
2022/12/17 18:02:18;;;;;;;51.78;25.42;;;;;;;-3.25;100.00;101998.47;5149896;28;20097;-75
2022/12/17 18:04:48;;;;;;;49.33;25.17;;;;;;;-3.50;100.00;102011.00;5152607;28;20022;-75
2022/12/17 18:07:19;;;;;;;48.47;24.70;;;;;;;-3.63;100.00;102012.09;5123431;28;20030;-75
2022/12/17 18:09:49;;;;;;;47.92;24.70;;;;;;;-3.64;100.00;102011.22;5143709;28;20057;-75
2022/12/17 18:15:09;;;;;;;57.22;28.40;;;;;;;-3.71;100.00;102009.22;5135664;28;20086;-76
2022/12/17 18:17:39;;;;;;;53.88;29.63;;;;;;;-3.83;100.00;102007.78;5144022;28;20019;-76
2022/12/17 18:20:10;;;;;;;59.05;27.52;;;;;;;-3.84;100.00;102016.25;5138757;28;20026;-74
2022/12/17 18:22:42;;;;;;;52.80;27.08;;;;;;;-3.86;100.00;102018.75;5138556;28;20037;-75
2022/12/17 18:25:12;;;;;;;56.78;28.70;;;;;;;-3.92;100.00;102023.56;5140883;28;20131;-75
2022/12/17 18:27:43;;;;;;;56.72;28.42;;;;;;;-3.82;100.00;102033.38;5143078;28;20450;-76
2022/12/17 18:30:15;;;;;;;56.60;28.40;;;;;;;-3.85;100.00;102027.25;5139669;28;20452;-75
2022/12/17 18:32:48;;;;;;;55.78;27.73;;;;;;;-3.84;100.00;102029.00;5140599;28;20026;-74
2022/12/17 18:35:18;;;;;;;48.95;26.67;;;;;;;-3.95;100.00;102027.66;5129532;28;20512;-75
2022/12/17 18:37:48;;;;;;;50.80;27.02;;;;;;;-3.88;100.00;102032.22;5148843;28;20252;-76
2022/12/17 18:40:19;;;;;;;51.60;25.88;;;;;;;-3.89;100.00;102033.03;5155590;28;20045;-75
2022/12/17 18:45:38;;;;;;;55.67;25.98;;;;;;;-3.88;100.00;102028.03;5150575;28;20050;-75
2022/12/17 18:48:08;;;;;;;54.10;26.58;;;;;;;-3.90;100.00;102031.28;5148703;28;20394;-76
2022/12/17 18:50:38;;;;;;;58.00;27.10;;;;;;;-3.93;100.00;102038.81;5148531;28;20054;-75
2022/12/17 18:53:09;;;;;;;51.38;26.48;;;;;;;-3.97;100.00;102042.03;5132531;28;20427;-75
2022/12/17 18:58:12;;;;;;;53.90;26.33;;;;;;;-3.95;100.00;102043.84;5224869;28;20322;-71
2022/12/17 19:00:43;;;;;;;54.63;26.45;;;;;;;-3.92;100.00;102043.97;5229422;28;20025;-72
2022/12/17 19:03:13;;;;;;;50.22;26.05;;;;;;;-3.85;100.00;102056.22;5230234;28;20097;-71
2022/12/17 19:05:44;;;;;;;50.13;25.38;;;;;;;-3.80;100.00;102054.75;5218593;28;20636;-72
2022/12/17 19:08:15;;;;;;;52.08;25.63;;;;;;;-3.82;100.00;102058.91;5224647;28;20021;-72
2022/12/17 19:10:45;;;;;;;56.42;27.05;;;;;;;-3.70;100.00;102066.25;5230960;28;20028;-71
2022/12/17 19:13:15;;;;;;;57.35;25.83;;;;;;;-3.74;100.00;102060.16;5229722;28;20041;-71
2022/12/17 19:15:46;;;;;;;50.10;24.65;;;;;;;-3.80;100.00;102056.44;5220781;28;20478;-71
2022/12/17 19:18:16;;;;;;;53.85;26.05;;;;;;;-3.82;100.00;102061.47;5224174;28;20132;-72
2022/12/17 19:20:46;;;;;;;52.78;26.75;;;;;;;-3.93;100.00;102064.34;5223933;28;20511;-70
2022/12/17 19:23:17;;;;;;;48.75;26.25;;;;;;;-3.95;100.00;102068.50;5226405;28;20048;-71
2022/12/17 19:25:47;;;;;;;50.38;25.55;;;;;;;-3.92;100.00;102056.75;5223035;28;20482;-72
2022/12/17 19:28:18;;;;;;;49.88;26.23;;;;;;;-4.02;100.00;102061.34;5224501;28;20063;-71
2022/12/17 19:30:55;;;;;;;52.70;25.98;;;;;;;-4.11;100.00;102066.06;5218897;28;20109;-70
2022/12/17 19:33:25;;;;;;;55.83;27.58;;;;;;;-4.20;100.00;102070.72;5228308;28;20024;-71
2022/12/17 19:36:05;;;;;;;55.72;27.15;;;;;;;-4.15;100.00;102074.38;5219601;28;20025;-71
2022/12/17 19:38:35;;;;;;;52.20;26.35;;;;;;;-4.20;100.00;102073.25;5222150;28;20025;-71
2022/12/17 19:41:09;;;;;;;53.30;25.25;;;;;;;-4.24;100.00;102079.03;5230757;28;20024;-71
2022/12/17 19:43:40;;;;;;;54.70;25.70;;;;;;;-4.33;100.00;102086.28;5229012;28;20111;-71
2022/12/17 19:46:18;;;;;;;55.28;26.73;;;;;;;-4.39;100.00;102094.50;5210221;28;20028;-72
2022/12/17 19:48:49;;;;;;;54.08;26.10;;;;;;;-4.39;100.00;102088.50;5220574;28;20180;-71
2022/12/17 19:51:22;;;;;;;49.92;25.60;;;;;;;-4.30;100.00;102091.50;5221378;28;20453;-71
2022/12/17 19:53:53;;;;;;;54.05;26.65;;;;;;;-4.31;100.00;102087.22;5221303;28;20021;-71
2022/12/17 19:56:31;;;;;;;51.13;25.92;;;;;;;-4.29;100.00;102090.72;5222435;28;20031;-71
2022/12/17 19:59:05;;;;;;;51.88;25.65;;;;;;;-4.23;100.00;102094.44;5226527;28;20190;-71
2022/12/17 20:01:39;;;;;;;49.05;24.80;;;;;;;-4.42;100.00;102104.56;5230660;28;20031;-72
2022/12/17 20:04:12;;;;;;;53.10;25.00;;;;;;;-4.40;100.00;102104.63;5230461;28;20507;-71
2022/12/17 20:06:43;;;;;;;50.20;24.95;;;;;;;-4.57;100.00;102102.91;5222147;28;20024;-72
2022/12/17 20:09:16;;;;;;;51.63;24.67;;;;;;;-4.52;100.00;102101.47;5225430;28;20032;-71
2022/12/17 20:11:46;;;;;;;48.28;23.88;;;;;;;-4.44;100.00;102095.94;5226747;28;20040;-71
2022/12/17 20:14:19;;;;;;;47.05;23.85;;;;;;;-4.57;100.00;102097.81;5221547;28;20029;-71
2022/12/17 20:16:57;;;;;;;47.63;24.23;;;;;;;-4.47;100.00;102106.00;5223173;28;20770;-71
2022/12/17 20:19:29;;;;;;;47.30;23.45;;;;;;;-4.43;100.00;102102.78;5223001;28;20409;-71
2022/12/17 20:22:03;;;;;;;45.28;23.08;;;;;;;-4.45;100.00;102106.06;5219965;28;20571;-72
2022/12/17 20:24:33;;;;;;;47.08;23.63;;;;;;;-4.62;100.00;102104.38;5225909;28;20032;-71
2022/12/17 20:27:04;;;;;;;48.78;24.50;;;;;;;-4.59;100.00;102107.97;5224722;28;20036;-71
2022/12/17 20:29:35;;;;;;;45.60;23.20;;;;;;;-4.54;100.00;102108.16;5223683;28;20497;-71
2022/12/17 20:32:05;;;;;;;47.45;23.08;;;;;;;-4.75;100.00;102107.13;5226945;28;20067;-71
2022/12/17 20:34:36;;;;;;;42.22;21.90;;;;;;;-4.73;100.00;102106.41;5228666;28;20032;-71
2022/12/17 20:37:06;;;;;;;44.78;23.35;;;;;;;-4.93;100.00;102104.53;5220129;28;20035;-71
2022/12/17 20:39:36;;;;;;;45.65;22.98;;;;;;;-5.01;100.00;102103.25;5225309;28;20028;-71
2022/12/17 20:42:08;;;;;;;46.50;23.73;;;;;;;-5.03;100.00;102103.97;5230344;28;20776;-71
2022/12/17 20:44:38;;;;;;;43.95;21.88;;;;;;;-4.84;100.00;102106.66;5226161;28;20036;-71
2022/12/17 20:47:09;;;;;;;46.38;22.88;;;;;;;-4.82;100.00;102108.47;5225227;28;20214;-71
2022/12/17 20:49:40;;;;;;;45.90;23.05;;;;;;;-4.95;100.00;102107.78;5224766;28;20090;-71
2022/12/17 20:52:10;;;;;;;43.47;22.30;;;;;;;-5.07;100.00;102107.16;5217862;28;20560;-71
2022/12/17 20:54:40;;;;;;;44.88;23.02;;;;;;;-4.99;100.00;102098.25;5225302;28;20111;-71
2022/12/17 20:57:10;;;;;;;38.35;20.45;;;;;;;-5.18;100.00;102093.03;5220595;28;20204;-70
2022/12/17 20:59:41;;;;;;;43.05;20.90;;;;;;;-5.41;100.00;102098.59;5230143;28;20062;-71
2022/12/17 21:02:11;;;;;;;44.08;21.98;;;;;;;-5.37;100.00;102097.94;5228133;28;20032;-71
2022/12/17 21:04:41;;;;;;;44.38;22.20;;;;;;;-5.57;100.00;102103.66;5229993;28;20028;-71
2022/12/17 21:07:12;;;;;;;44.85;21.67;;;;;;;-5.58;100.00;102113.78;5216205;28;20050;-71
2022/12/17 21:09:43;;;;;;;46.30;22.23;;;;;;;-5.66;100.00;102110.84;5217980;28;20036;-72
2022/12/17 21:12:13;;;;;;;43.28;20.70;;;;;;;-5.62;100.00;102117.84;5219132;28;20044;-71
2022/12/17 21:14:44;;;;;;;45.05;22.58;;;;;;;-5.69;100.00;102128.50;5230432;28;20519;-71
2022/12/17 21:17:14;;;;;;;41.60;21.67;;;;;;;-5.81;100.00;102143.13;5222547;28;20029;-71
2022/12/17 21:19:45;;;;;;;41.25;22.15;;;;;;;-5.75;100.00;102140.00;5222544;28;20032;-72
2022/12/17 21:22:15;;;;;;;41.13;21.67;;;;;;;-5.89;100.00;102144.38;5218801;28;20083;-71
2022/12/17 21:24:45;;;;;;;39.40;20.42;;;;;;;-5.91;100.00;102148.50;5217407;28;20032;-70
2022/12/17 21:27:16;;;;;;;40.15;21.02;;;;;;;-5.83;100.00;102139.63;5220111;28;20037;-71
2022/12/17 21:29:46;;;;;;;41.22;21.77;;;;;;;-5.88;100.00;102146.13;5226433;28;20037;-71
2022/12/17 21:32:16;;;;;;;42.03;20.52;;;;;;;-5.89;100.00;102136.72;5226957;28;20446;-72
2022/12/17 21:34:47;;;;;;;43.22;22.52;;;;;;;-5.90;100.00;102140.06;5231543;28;20440;-71
2022/12/17 21:37:17;;;;;;;38.13;20.92;;;;;;;-5.99;100.00;102149.75;5219218;28;20027;-72
2022/12/17 21:39:47;;;;;;;37.38;19.83;;;;;;;-5.98;100.00;102151.50;5226396;28;20036;-71
2022/12/17 21:45:07;;;;;;;41.75;22.23;;;;;;;-6.08;100.00;102159.41;5230723;28;20028;-71
2022/12/17 21:47:37;;;;;;;39.83;21.40;;;;;;;-6.08;100.00;102156.00;5225551;28;20063;-71
2022/12/17 21:50:08;;;;;;;40.45;20.88;;;;;;;-6.10;100.00;102166.09;5225717;28;20048;-71
2022/12/17 21:52:38;;;;;;;39.20;20.20;;;;;;;-5.75;100.00;102163.78;5223488;28;20118;-71
2022/12/17 21:55:09;;;;;;;38.85;20.80;;;;;;;-5.94;100.00;102163.59;5228642;28;20536;-72
2022/12/17 21:57:39;;;;;;;36.92;19.80;;;;;;;-6.01;100.00;102161.53;5229669;28;20052;-71
2022/12/17 22:00:10;;;;;;;35.95;19.58;;;;;;;-6.28;100.00;102170.16;5240474;28;20036;-71
2022/12/17 22:02:40;;;;;;;36.42;19.92;;;;;;;-6.32;100.00;102173.31;5232726;28;20048;-71
2022/12/17 22:05:11;;;;;;;38.30;20.63;;;;;;;-6.20;100.00;102179.09;5233220;28;20033;-71
2022/12/17 22:07:41;;;;;;;41.38;20.85;;;;;;;-6.07;100.00;102180.66;5221941;28;20107;-71
2022/12/17 22:10:11;;;;;;;38.92;20.23;;;;;;;-6.24;100.00;102184.78;5225465;28;20037;-71
2022/12/17 22:15:31;;;;;;;38.65;19.95;;;;;;;-6.06;100.00;102173.09;5230818;28;20106;-71
2022/12/17 22:18:01;;;;;;;42.65;20.70;;;;;;;-6.23;100.00;102189.06;5226807;28;20017;-71
2022/12/17 22:20:32;;;;;;;36.92;20.42;;;;;;;-6.20;100.00;102196.91;5223590;28;20028;-71
2022/12/17 22:23:03;;;;;;;37.25;20.27;;;;;;;-6.25;100.00;102198.28;5232760;28;20045;-71
2022/12/17 22:25:36;;;;;;;38.10;19.77;;;;;;;-6.20;100.00;102188.38;5236286;28;20055;-72
2022/12/17 22:28:07;;;;;;;37.33;19.75;;;;;;;-6.06;100.00;102190.03;5228628;28;20024;-71
2022/12/17 22:33:26;;;;;;;38.10;18.95;;;;;;;-6.06;100.00;102187.50;5230205;28;20119;-72
2022/12/17 22:36:03;;;;;;;38.85;19.83;;;;;;;-6.17;100.00;102196.19;5228023;28;20113;-72
2022/12/17 22:38:33;;;;;;;38.28;19.73;;;;;;;-6.14;100.00;102192.16;5229537;28;20031;-71
2022/12/17 22:41:04;;;;;;;36.70;19.73;;;;;;;-6.25;100.00;102195.75;5231130;28;20397;-71
2022/12/17 22:43:35;;;;;;;39.08;19.27;;;;;;;-6.27;100.00;102194.78;5231736;28;20035;-71
2022/12/17 22:46:05;;;;;;;38.83;20.08;;;;;;;-6.08;100.00;102199.25;5230735;28;20028;-71
2022/12/17 22:48:35;;;;;;;37.90;19.65;;;;;;;-6.05;98.67;102197.72;5226293;28;20029;-71
2022/12/17 22:51:09;;;;;;;37.53;19.77;;;;;;;-6.16;98.75;102188.66;5223523;28;20037;-71
2022/12/17 22:53:39;;;;;;;36.67;19.17;;;;;;;-6.18;98.77;102202.94;5225235;28;20090;-71
2022/12/17 22:56:09;;;;;;;38.28;19.65;;;;;;;-6.08;99.19;102199.25;5202316;28;20033;-70
2022/12/17 22:58:40;;;;;;;40.20;19.75;;;;;;;-6.28;98.23;102207.44;5225274;28;20106;-71
2022/12/17 23:01:11;;;;;;;38.80;19.90;;;;;;;-6.35;97.97;102206.19;5230535;28;20016;-71
2022/12/17 23:03:41;;;;;;;37.08;18.88;;;;;;;-6.33;99.63;102202.06;5227730;28;20032;-71
2022/12/17 23:06:15;;;;;;;40.90;20.38;;;;;;;-6.29;98.32;102208.22;5226398;28;20035;-71
2022/12/17 23:08:45;;;;;;;38.88;19.90;;;;;;;-6.39;98.38;102205.94;5225863;28;20402;-71
2022/12/17 23:11:22;;;;;;;40.47;20.08;;;;;;;-6.60;98.47;102207.22;5233892;28;20036;-71
2022/12/17 23:13:53;;;;;;;43.65;21.17;;;;;;;-6.40;98.46;102199.94;5224022;28;20036;-71
2022/12/17 23:16:23;;;;;;;39.90;19.75;;;;;;;-6.39;97.91;102203.38;5222950;28;20438;-71
2022/12/17 23:18:54;;;;;;;37.13;19.20;;;;;;;-6.36;97.42;102196.81;5221338;28;20098;-71
2022/12/17 23:21:25;;;;;;;35.97;18.67;;;;;;;-6.36;97.23;102196.81;5222821;28;20112;-71
2022/12/17 23:23:56;;;;;;;39.38;18.60;;;;;;;-6.45;96.91;102198.81;5224619;28;20785;-70
2022/12/17 23:26:30;;;;;;;36.00;18.75;;;;;;;-6.50;98.37;102199.34;5228294;28;20020;-71
2022/12/17 23:29:03;;;;;;;41.28;19.95;;;;;;;-6.62;98.95;102196.97;5222850;28;20017;-71
2022/12/17 23:31:36;;;;;;;39.63;20.00;;;;;;;-6.56;99.26;102202.38;5224255;28;20549;-71
2022/12/17 23:34:07;;;;;;;39.08;19.80;;;;;;;-6.49;99.49;102196.88;5218945;28;20086;-71
2022/12/17 23:36:37;;;;;;;41.63;20.63;;;;;;;-6.59;99.78;102198.81;5217417;28;20514;-71
2022/12/17 23:39:07;;;;;;;44.20;22.23;;;;;;;-6.63;100.00;102197.75;5218367;28;20152;-71
2022/12/17 23:41:38;;;;;;;43.63;19.83;;;;;;;-6.54;100.00;102200.84;5221431;28;20099;-71
2022/12/17 23:44:08;;;;;;;41.85;20.52;;;;;;;-6.69;100.00;102194.88;5222950;28;20025;-71
2022/12/17 23:46:38;;;;;;;39.55;19.50;;;;;;;-6.71;99.84;102196.44;5221745;28;20390;-71
2022/12/17 23:49:09;;;;;;;37.55;19.10;;;;;;;-6.68;100.00;102195.72;5213037;28;20112;-71
2022/12/17 23:51:39;;;;;;;39.03;19.42;;;;;;;-6.70;100.00;102195.66;5219583;28;20037;-71
2022/12/17 23:54:09;;;;;;;37.53;19.60;;;;;;;-6.63;100.00;102200.28;5217290;28;20017;-71
2022/12/17 23:56:40;;;;;;;38.13;19.35;;;;;;;-6.67;99.34;102188.19;5223409;28;20325;-71
2022/12/17 23:59:10;;;;;;;38.88;19.67;;;;;;;-6.56;99.90;102187.13;5221186;28;20031;-71
